sensor_id;sensor_type;location;lat;lon;timestamp;pressure;altitude;pressure_sealevel;temperature;humidity
53647;BME280;39550;52.230;5.194;2022-12-20T00:02:14;101140.13;;;4.35;94.95
53647;BME280;39550;52.230;5.194;2022-12-20T00:04:40;101133.31;;;4.35;94.38
53647;BME280;39550;52.230;5.194;2022-12-20T00:07:05;101135.06;;;4.36;94.20
53647;BME280;39550;52.230;5.194;2022-12-20T00:09:31;101138.41;;;4.35;94.69
53647;BME280;39550;52.230;5.194;2022-12-20T00:11:57;101133.38;;;4.37;94.97
53647;BME280;39550;52.230;5.194;2022-12-20T00:14:22;101141.88;;;4.37;94.50
53647;BME280;39550;52.230;5.194;2022-12-20T00:16:47;101132.63;;;4.39;94.64
53647;BME280;39550;52.230;5.194;2022-12-20T00:19:13;101140.28;;;4.39;94.61
53647;BME280;39550;52.230;5.194;2022-12-20T00:21:38;101141.09;;;4.38;94.61
53647;BME280;39550;52.230;5.194;2022-12-20T00:24:04;101145.38;;;4.39;94.58
53647;BME280;39550;52.230;5.194;2022-12-20T00:26:32;101134.31;;;4.39;94.64
53647;BME280;39550;52.230;5.194;2022-12-20T00:28:58;101119.88;;;4.39;94.05
53647;BME280;39550;52.230;5.194;2022-12-20T00:31:25;101123.22;;;4.38;94.33
53647;BME280;39550;52.230;5.194;2022-12-20T00:33:53;101119.88;;;4.39;94.73
53647;BME280;39550;52.230;5.194;2022-12-20T00:36:19;101120.78;;;4.41;94.70
53647;BME280;39550;52.230;5.194;2022-12-20T00:38:46;101125.88;;;4.41;94.68
53647;BME280;39550;52.230;5.194;2022-12-20T00:41:15;101109.75;;;4.42;94.35
53647;BME280;39550;52.230;5.194;2022-12-20T00:43:41;101113.13;;;4.41;94.50
53647;BME280;39550;52.230;5.194;2022-12-20T00:46:08;101124.22;;;4.42;94.08
53647;BME280;39550;52.230;5.194;2022-12-20T00:48:34;101135.28;;;4.42;94.57
53647;BME280;39550;52.230;5.194;2022-12-20T00:51:03;101116.56;;;4.42;94.36
53647;BME280;39550;52.230;5.194;2022-12-20T00:53:29;101124.28;;;4.43;94.60
53647;BME280;39550;52.230;5.194;2022-12-20T00:55:55;101125.88;;;4.41;94.25
53647;BME280;39550;52.230;5.194;2022-12-20T00:58:21;101116.63;;;4.43;94.59
53647;BME280;39550;52.230;5.194;2022-12-20T01:00:47;101114.97;;;4.46;94.44
53647;BME280;39550;52.230;5.194;2022-12-20T01:03:12;101116.72;;;4.47;94.12
53647;BME280;39550;52.230;5.194;2022-12-20T01:05:37;101109.88;;;4.46;94.07
53647;BME280;39550;52.230;5.194;2022-12-20T01:08:04;101110.00;;;4.49;94.69
53647;BME280;39550;52.230;5.194;2022-12-20T01:10:29;101118.47;;;4.48;94.48
53647;BME280;39550;52.230;5.194;2022-12-20T01:12:55;101105.72;;;4.48;94.65
53647;BME280;39550;52.230;5.194;2022-12-20T01:15:20;101109.13;;;4.48;93.98
53647;BME280;39550;52.230;5.194;2022-12-20T01:17:46;101102.34;;;4.49;94.79
53647;BME280;39550;52.230;5.194;2022-12-20T01:20:12;101101.50;;;4.50;94.50
53647;BME280;39550;52.230;5.194;2022-12-20T01:22:37;101091.31;;;4.50;94.70
53647;BME280;39550;52.230;5.194;2022-12-20T01:25:03;101094.75;;;4.50;94.69
53647;BME280;39550;52.230;5.194;2022-12-20T01:27:28;101103.25;;;4.51;94.56
53647;BME280;39550;52.230;5.194;2022-12-20T01:29:54;101091.31;;;4.50;94.24
53647;BME280;39550;52.230;5.194;2022-12-20T01:32:19;101093.06;;;4.51;94.31
53647;BME280;39550;52.230;5.194;2022-12-20T01:34:45;101098.22;;;4.52;94.20
53647;BME280;39550;52.230;5.194;2022-12-20T01:37:10;101099.97;;;4.53;94.49
53647;BME280;39550;52.230;5.194;2022-12-20T01:39:36;101093.16;;;4.54;95.04
53647;BME280;39550;52.230;5.194;2022-12-20T01:42:01;101091.56;;;4.56;94.49
53647;BME280;39550;52.230;5.194;2022-12-20T01:46:52;101080.44;;;4.55;95.19
53647;BME280;39550;52.230;5.194;2022-12-20T01:49:19;101077.09;;;4.56;94.48
53647;BME280;39550;52.230;5.194;2022-12-20T01:51:49;101086.44;;;4.56;94.42
53647;BME280;39550;52.230;5.194;2022-12-20T01:54:20;101074.59;;;4.58;95.46
53647;BME280;39550;52.230;5.194;2022-12-20T01:56:51;101077.09;;;4.56;95.11
53647;BME280;39550;52.230;5.194;2022-12-20T01:59:18;101084.81;;;4.58;95.19
53647;BME280;39550;52.230;5.194;2022-12-20T02:01:44;101074.59;;;4.58;95.25
53647;BME280;39550;52.230;5.194;2022-12-20T02:04:10;101070.38;;;4.58;95.55
53647;BME280;39550;52.230;5.194;2022-12-20T02:06:35;101065.28;;;4.58;95.73
53647;BME280;39550;52.230;5.194;2022-12-20T02:09:02;101068.69;;;4.59;95.54
53647;BME280;39550;52.230;5.194;2022-12-20T02:11:48;101068.69;;;4.59;95.20
53647;BME280;39550;52.230;5.194;2022-12-20T02:14:44;101061.03;;;4.59;94.65
53647;BME280;39550;52.230;5.194;2022-12-20T02:23:34;101032.16;;;4.60;94.87
53647;BME280;39550;52.230;5.194;2022-12-20T02:31:32;101040.66;;;4.60;94.89
53647;BME280;39550;52.230;5.194;2022-12-20T02:33:59;101035.59;;;4.62;95.09
53647;BME280;39550;52.230;5.194;2022-12-20T02:36:24;101037.34;;;4.63;95.42
53647;BME280;39550;52.230;5.194;2022-12-20T02:38:50;101042.44;;;4.63;95.49
53647;BME280;39550;52.230;5.194;2022-12-20T02:41:23;101029.63;;;4.62;95.02
53647;BME280;39550;52.230;5.194;2022-12-20T02:43:55;101027.13;;;4.63;95.33
53647;BME280;39550;52.230;5.194;2022-12-20T02:46:40;101038.25;;;4.65;95.02
53647;BME280;39550;52.230;5.194;2022-12-20T02:49:10;101025.50;;;4.65;95.77
53647;BME280;39550;52.230;5.194;2022-12-20T02:51:36;101030.59;;;4.65;95.69
53647;BME280;39550;52.230;5.194;2022-12-20T02:54:03;101041.66;;;4.64;95.20
53647;BME280;39550;52.230;5.194;2022-12-20T02:56:36;101040.06;;;4.68;95.70
53647;BME280;39550;52.230;5.194;2022-12-20T02:59:13;101035.78;;;4.67;95.08
53647;BME280;39550;52.230;5.194;2022-12-20T03:01:45;101025.56;;;4.67;94.77
53647;BME280;39550;52.230;5.194;2022-12-20T03:04:12;101023.94;;;4.69;95.23
53647;BME280;39550;52.230;5.194;2022-12-20T03:06:39;101020.53;;;4.68;95.38
53647;BME280;39550;52.230;5.194;2022-12-20T03:09:04;101022.19;;;4.68;95.32
53647;BME280;39550;52.230;5.194;2022-12-20T03:11:29;101029.09;;;4.70;96.04
53647;BME280;39550;52.230;5.194;2022-12-20T03:13:55;101021.44;;;4.70;95.90
53647;BME280;39550;52.230;5.194;2022-12-20T03:16:20;101027.34;;;4.69;95.48
53647;BME280;39550;52.230;5.194;2022-12-20T03:18:45;101023.97;;;4.70;95.32
53647;BME280;39550;52.230;5.194;2022-12-20T03:21:12;101018.88;;;4.70;95.07
53647;BME280;39550;52.230;5.194;2022-12-20T03:23:37;101030.84;;;4.71;96.22
53647;BME280;39550;52.230;5.194;2022-12-20T03:26:03;101024.91;;;4.72;95.27
53647;BME280;39550;52.230;5.194;2022-12-20T03:28:28;101023.13;;;4.70;95.45
53647;BME280;39550;52.230;5.194;2022-12-20T03:30:53;101035.94;;;4.71;95.31
53647;BME280;39550;52.230;5.194;2022-12-20T03:33:19;101033.38;;;4.71;95.32
53647;BME280;39550;52.230;5.194;2022-12-20T03:35:46;101022.38;;;4.72;95.50
53647;BME280;39550;52.230;5.194;2022-12-20T03:38:11;101027.47;;;4.72;95.82
53647;BME280;39550;52.230;5.194;2022-12-20T03:40:36;101019.81;;;4.72;95.87
53647;BME280;39550;52.230;5.194;2022-12-20T03:43:02;101012.16;;;4.72;94.93
53647;BME280;39550;52.230;5.194;2022-12-20T03:45:27;101028.31;;;4.73;95.11
53647;BME280;39550;52.230;5.194;2022-12-20T03:47:52;101006.28;;;4.75;95.87
53647;BME280;39550;52.230;5.194;2022-12-20T03:50:18;101007.16;;;4.75;95.39
53647;BME280;39550;52.230;5.194;2022-12-20T03:52:43;101001.22;;;4.76;95.84
53647;BME280;39550;52.230;5.194;2022-12-20T03:55:09;101001.22;;;4.76;95.66
53647;BME280;39550;52.230;5.194;2022-12-20T03:57:34;101002.13;;;4.78;95.32
53647;BME280;39550;52.230;5.194;2022-12-20T04:00:00;100991.13;;;4.80;95.78
53647;BME280;39550;52.230;5.194;2022-12-20T04:02:25;101002.13;;;4.78;95.69
53647;BME280;39550;52.230;5.194;2022-12-20T04:04:51;101000.47;;;4.79;95.42
53647;BME280;39550;52.230;5.194;2022-12-20T04:07:16;100995.41;;;4.81;95.72
53647;BME280;39550;52.230;5.194;2022-12-20T04:09:42;100994.53;;;4.80;95.36
53647;BME280;39550;52.230;5.194;2022-12-20T04:12:07;101000.53;;;4.81;95.71
53647;BME280;39550;52.230;5.194;2022-12-20T04:14:32;100995.41;;;4.81;95.77
53647;BME280;39550;52.230;5.194;2022-12-20T04:16:58;101000.56;;;4.82;95.33
53647;BME280;39550;52.230;5.194;2022-12-20T04:19:23;100994.56;;;4.82;95.66
53647;BME280;39550;52.230;5.194;2022-12-20T04:21:49;100988.63;;;4.81;95.63
53647;BME280;39550;52.230;5.194;2022-12-20T04:24:14;100987.81;;;4.82;95.33
53647;BME280;39550;52.230;5.194;2022-12-20T04:26:39;100983.56;;;4.83;95.14
53647;BME280;39550;52.230;5.194;2022-12-20T04:29:05;100981.81;;;4.82;95.61
53647;BME280;39550;52.230;5.194;2022-12-20T04:31:31;100972.53;;;4.84;96.00
53647;BME280;39550;52.230;5.194;2022-12-20T04:33:56;100967.41;;;4.84;95.25
53647;BME280;39550;52.230;5.194;2022-12-20T04:36:21;100973.44;;;4.86;96.15
53647;BME280;39550;52.230;5.194;2022-12-20T04:38:47;100969.97;;;4.84;95.48
53647;BME280;39550;52.230;5.194;2022-12-20T04:41:12;100980.28;;;4.87;96.00
53647;BME280;39550;52.230;5.194;2022-12-20T04:43:57;100969.22;;;4.86;95.75
53647;BME280;39550;52.230;5.194;2022-12-20T04:46:24;100973.56;;;4.89;95.55
53647;BME280;39550;52.230;5.194;2022-12-20T04:48:49;100973.56;;;4.89;96.04
53647;BME280;39550;52.230;5.194;2022-12-20T04:51:15;100971.81;;;4.88;95.78
53647;BME280;39550;52.230;5.194;2022-12-20T04:53:41;100976.13;;;4.89;95.91
53647;BME280;39550;52.230;5.194;2022-12-20T04:56:14;100977.03;;;4.91;95.21
53647;BME280;39550;52.230;5.194;2022-12-20T04:58:39;100978.75;;;4.92;95.85
53647;BME280;39550;52.230;5.194;2022-12-20T05:01:05;100967.66;;;4.91;95.55
53647;BME280;39550;52.230;5.194;2022-12-20T05:03:30;100970.28;;;4.93;95.94
53647;BME280;39550;52.230;5.194;2022-12-20T05:05:56;100979.63;;;4.92;95.34
53647;BME280;39550;52.230;5.194;2022-12-20T05:08:22;100971.16;;;4.93;95.06
53647;BME280;39550;52.230;5.194;2022-12-20T05:10:47;100968.63;;;4.95;95.71
53647;BME280;39550;52.230;5.194;2022-12-20T05:13:13;100958.44;;;4.95;95.31
53647;BME280;39550;52.230;5.194;2022-12-20T05:15:38;100966.13;;;4.97;95.64
53647;BME280;39550;52.230;5.194;2022-12-20T05:18:03;100954.13;;;4.94;95.45
53647;BME280;39550;52.230;5.194;2022-12-20T05:20:30;100924.84;;;4.83;95.71
53647;BME280;39550;52.230;5.194;2022-12-20T05:22:56;100952.47;;;4.94;95.82
53647;BME280;39550;52.230;5.194;2022-12-20T05:25:46;100916.31;;;4.82;95.84
53647;BME280;39550;52.230;5.194;2022-12-20T05:28:31;100920.75;;;4.88;95.96
53647;BME280;39550;52.230;5.194;2022-12-20T05:30:57;100855.53;;;4.45;96.02
53647;BME280;39550;52.230;5.194;2022-12-20T05:33:23;100905.22;;;4.82;96.13
53647;BME280;39550;52.230;5.194;2022-12-20T05:35:48;100881.03;;;4.70;96.14
53647;BME280;39550;52.230;5.194;2022-12-20T05:38:14;100887.16;;;4.75;95.58
53647;BME280;39550;52.230;5.194;2022-12-20T05:40:40;100859.50;;;4.62;95.54
53647;BME280;39550;52.230;5.194;2022-12-20T05:43:05;100906.44;;;4.93;95.96
53647;BME280;39550;52.230;5.194;2022-12-20T05:45:31;100909.19;;;4.99;96.35
53647;BME280;39550;52.230;5.194;2022-12-20T05:47:57;100836.53;;;4.62;95.98
53647;BME280;39550;52.230;5.194;2022-12-20T05:50:22;100893.00;;;4.99;96.17
53647;BME280;39550;52.230;5.194;2022-12-20T05:52:51;100820.13;;;4.55;96.06
53647;BME280;39550;52.230;5.194;2022-12-20T05:55:16;100842.75;;;4.70;96.53
53647;BME280;39550;52.230;5.194;2022-12-20T05:57:41;100862.06;;;4.89;95.91
53647;BME280;39550;52.230;5.194;2022-12-20T06:00:08;100892.25;;;5.01;96.13
53647;BME280;39550;52.230;5.194;2022-12-20T06:02:33;100899.94;;;5.03;96.17
53647;BME280;39550;52.230;5.194;2022-12-20T06:04:59;100829.78;;;4.64;96.09
53647;BME280;39550;52.230;5.194;2022-12-20T06:07:27;100867.22;;;4.91;96.51
53647;BME280;39550;52.230;5.194;2022-12-20T06:09:54;100840.19;;;4.70;95.83
53647;BME280;39550;52.230;5.194;2022-12-20T06:12:19;100863.75;;;4.89;96.09
53647;BME280;39550;52.230;5.194;2022-12-20T06:14:45;100861.00;;;4.83;95.85
53647;BME280;39550;52.230;5.194;2022-12-20T06:17:10;100879.16;;;4.92;95.99
53647;BME280;39550;52.230;5.194;2022-12-20T06:19:36;100888.75;;;4.99;96.21
53647;BME280;39550;52.230;5.194;2022-12-20T06:22:02;100883.66;;;4.99;96.47
53647;BME280;39550;52.230;5.194;2022-12-20T06:24:27;100902.63;;;5.07;96.16
53647;BME280;39550;52.230;5.194;2022-12-20T06:26:53;100834.34;;;4.74;96.21
53647;BME280;39550;52.230;5.194;2022-12-20T06:29:21;100855.88;;;4.83;96.06
53647;BME280;39550;52.230;5.194;2022-12-20T06:31:48;100898.44;;;5.09;95.90
53647;BME280;39550;52.230;5.194;2022-12-20T06:34:14;100840.41;;;4.76;96.04
53647;BME280;39550;52.230;5.194;2022-12-20T06:36:40;100868.16;;;4.93;96.36
53647;BME280;39550;52.230;5.194;2022-12-20T06:39:12;100864.63;;;4.89;96.14
53647;BME280;39550;52.230;5.194;2022-12-20T06:41:39;100858.69;;;4.90;95.97
53647;BME280;39550;52.230;5.194;2022-12-20T06:44:04;100821.47;;;4.70;96.60
53647;BME280;39550;52.230;5.194;2022-12-20T06:46:30;100854.44;;;4.91;96.02
53647;BME280;39550;52.230;5.194;2022-12-20T06:48:55;100889.13;;;5.11;96.20
53647;BME280;39550;52.230;5.194;2022-12-20T06:51:21;100888.84;;;5.02;95.72
53647;BME280;39550;52.230;5.194;2022-12-20T06:53:46;100888.97;;;5.05;96.54
53647;BME280;39550;52.230;5.194;2022-12-20T06:56:12;100835.47;;;4.83;96.07
53647;BME280;39550;52.230;5.194;2022-12-20T06:58:37;100882.28;;;5.10;96.30
53647;BME280;39550;52.230;5.194;2022-12-20T07:01:03;100895.09;;;5.12;96.26
53647;BME280;39550;52.230;5.194;2022-12-20T07:03:28;100864.16;;;5.01;96.14
53647;BME280;39550;52.230;5.194;2022-12-20T07:05:54;100878.75;;;5.05;95.91
53647;BME280;39550;52.230;5.194;2022-12-20T07:08:21;100865.97;;;5.05;96.53
53647;BME280;39550;52.230;5.194;2022-12-20T07:10:47;100887.84;;;5.26;96.60
53647;BME280;39550;52.230;5.194;2022-12-20T07:13:12;100867.78;;;5.09;96.32
53647;BME280;39550;52.230;5.194;2022-12-20T07:15:38;100887.84;;;5.26;96.04
53647;BME280;39550;52.230;5.194;2022-12-20T07:18:03;100887.81;;;5.24;96.16
53647;BME280;39550;52.230;5.194;2022-12-20T07:20:29;100880.66;;;5.13;96.19
53647;BME280;39550;52.230;5.194;2022-12-20T07:22:55;100871.31;;;5.13;96.44
53647;BME280;39550;52.230;5.194;2022-12-20T07:25:20;100872.53;;;5.26;96.06
53647;BME280;39550;52.230;5.194;2022-12-20T07:27:49;100873.59;;;5.33;96.02
53647;BME280;39550;52.230;5.194;2022-12-20T07:30:15;100892.53;;;5.39;95.99
53647;BME280;39550;52.230;5.194;2022-12-20T07:32:41;100882.88;;;5.29;96.17
53647;BME280;39550;52.230;5.194;2022-12-20T07:35:06;100858.41;;;5.08;95.32
53647;BME280;39550;52.230;5.194;2022-12-20T07:37:32;100804.84;;;4.83;95.93
53647;BME280;39550;52.230;5.194;2022-12-20T07:39:57;100888.78;;;5.28;96.21
53647;BME280;39550;52.230;5.194;2022-12-20T07:42:23;100832.28;;;4.90;96.00
53647;BME280;39550;52.230;5.194;2022-12-20T07:44:48;100839.34;;;4.97;95.55
53647;BME280;39550;52.230;5.194;2022-12-20T07:47:14;100874.63;;;5.10;95.48
53647;BME280;39550;52.230;5.194;2022-12-20T07:49:39;100856.56;;;5.04;96.05
53647;BME280;39550;52.230;5.194;2022-12-20T07:52:05;100897.31;;;5.28;95.74
53647;BME280;39550;52.230;5.194;2022-12-20T07:54:42;100908.50;;;5.32;96.79
53647;BME280;39550;52.230;5.194;2022-12-20T07:57:14;100848.19;;;5.08;96.72
53647;BME280;39550;52.230;5.194;2022-12-20T07:59:44;100857.66;;;5.13;96.54
53647;BME280;39550;52.230;5.194;2022-12-20T08:02:15;100822.28;;;4.96;96.33
53647;BME280;39550;52.230;5.194;2022-12-20T08:04:42;100892.16;;;5.27;96.50
53647;BME280;39550;52.230;5.194;2022-12-20T08:07:08;100894.84;;;5.32;96.26
53647;BME280;39550;52.230;5.194;2022-12-20T08:09:37;100851.56;;;5.07;96.62
53647;BME280;39550;52.230;5.194;2022-12-20T08:12:04;100830.66;;;4.92;95.78
53647;BME280;39550;52.230;5.194;2022-12-20T08:14:31;100893.16;;;5.32;96.22
53647;BME280;39550;52.230;5.194;2022-12-20T08:16:56;100888.78;;;5.28;96.52
53647;BME280;39550;52.230;5.194;2022-12-20T08:19:22;100857.75;;;5.16;96.20
53647;BME280;39550;52.230;5.194;2022-12-20T08:21:47;100867.34;;;5.23;96.42
53647;BME280;39550;52.230;5.194;2022-12-20T08:24:12;100865.41;;;5.16;96.97
53647;BME280;39550;52.230;5.194;2022-12-20T08:26:39;100880.91;;;5.22;96.42
53647;BME280;39550;52.230;5.194;2022-12-20T08:29:05;100896.44;;;5.28;96.49
53647;BME280;39550;52.230;5.194;2022-12-20T08:31:31;100839.34;;;4.97;96.65
53647;BME280;39550;52.230;5.194;2022-12-20T08:33:56;100892.25;;;5.30;96.66
53647;BME280;39550;52.230;5.194;2022-12-20T08:36:22;100886.97;;;5.24;96.52
53647;BME280;39550;52.230;5.194;2022-12-20T08:38:47;100835.94;;;4.98;96.48
53647;BME280;39550;52.230;5.194;2022-12-20T08:41:15;100886.28;;;5.29;95.97
53647;BME280;39550;52.230;5.194;2022-12-20T08:43:41;100884.50;;;5.27;96.50
53647;BME280;39550;52.230;5.194;2022-12-20T08:46:08;100835.94;;;4.98;96.85
53647;BME280;39550;52.230;5.194;2022-12-20T08:48:34;100886.38;;;5.33;96.27
53647;BME280;39550;52.230;5.194;2022-12-20T08:51:02;100888.16;;;5.35;96.30
53647;BME280;39550;52.230;5.194;2022-12-20T08:53:28;100896.75;;;5.37;96.50
53647;BME280;39550;52.230;5.194;2022-12-20T08:56:20;100876.09;;;5.31;96.84
53647;BME280;39550;52.230;5.194;2022-12-20T08:58:46;100853.47;;;5.15;96.14
53647;BME280;39550;52.230;5.194;2022-12-20T09:01:15;100896.78;;;5.39;96.87
53647;BME280;39550;52.230;5.194;2022-12-20T09:03:41;100884.56;;;5.30;96.42
53647;BME280;39550;52.230;5.194;2022-12-20T09:06:10;100882.03;;;5.30;96.57
53647;BME280;39550;52.230;5.194;2022-12-20T09:08:37;100900.97;;;5.37;96.05
53647;BME280;39550;52.230;5.194;2022-12-20T09:11:08;100868.16;;;5.22;96.40
53647;BME280;39550;52.230;5.194;2022-12-20T09:13:34;100872.44;;;5.23;96.29
53647;BME280;39550;52.230;5.194;2022-12-20T09:16:03;100875.03;;;5.24;96.35
53647;BME280;39550;52.230;5.194;2022-12-20T09:18:29;100832.78;;;5.05;96.09
53647;BME280;39550;52.230;5.194;2022-12-20T09:20:58;100877.75;;;5.29;96.34
53647;BME280;39550;52.230;5.194;2022-12-20T09:23:23;100875.97;;;5.26;96.40
53647;BME280;39550;52.230;5.194;2022-12-20T09:25:49;100844.78;;;5.09;96.51
53647;BME280;39550;52.230;5.194;2022-12-20T09:28:14;100897.63;;;5.39;96.73
53647;BME280;39550;52.230;5.194;2022-12-20T09:30:39;100897.75;;;5.44;97.29
53647;BME280;39550;52.230;5.194;2022-12-20T09:33:05;100897.75;;;5.44;96.46
53647;BME280;39550;52.230;5.194;2022-12-20T09:35:30;100865.75;;;5.26;97.17
53647;BME280;39550;52.230;5.194;2022-12-20T09:37:58;100893.50;;;5.43;95.79
53647;BME280;39550;52.230;5.194;2022-12-20T09:40:25;100855.13;;;5.13;96.36
53647;BME280;39550;52.230;5.194;2022-12-20T09:42:53;100884.91;;;5.41;96.97
53647;BME280;39550;52.230;5.194;2022-12-20T09:45:24;100903.75;;;5.44;96.93
53647;BME280;39550;52.230;5.194;2022-12-20T09:47:51;100895.16;;;5.42;96.93
53647;BME280;39550;52.230;5.194;2022-12-20T09:50:18;100887.25;;;5.33;96.89
53647;BME280;39550;52.230;5.194;2022-12-20T09:53:36;100903.84;;;5.48;96.54
53647;BME280;39550;52.230;5.194;2022-12-20T09:58:40;100882.50;;;5.45;97.29
53647;BME280;39550;52.230;5.194;2022-12-20T10:01:16;100889.41;;;5.50;96.68
53647;BME280;39550;52.230;5.194;2022-12-20T10:03:42;100869.44;;;5.36;96.40
53647;BME280;39550;52.230;5.194;2022-12-20T10:06:25;100889.19;;;5.42;96.65
53647;BME280;39550;52.230;5.194;2022-12-20T10:08:58;100900.47;;;5.49;96.16
53647;BME280;39550;52.230;5.194;2022-12-20T10:11:49;100884.41;;;5.53;97.14
53647;BME280;39550;52.230;5.194;2022-12-20T10:17:16;100892.97;;;5.55;97.02
53647;BME280;39550;52.230;5.194;2022-12-20T10:23:35;100878.56;;;5.57;96.24
53647;BME280;39550;52.230;5.194;2022-12-20T10:25:32;100892.16;;;5.56;97.23
53647;BME280;39550;52.230;5.194;2022-12-20T10:28:02;100859.38;;;5.42;96.42
53647;BME280;39550;52.230;5.194;2022-12-20T10:30:31;100878.53;;;5.55;97.08
53647;BME280;39550;52.230;5.194;2022-12-20T10:32:57;100869.03;;;5.51;96.78
53647;BME280;39550;52.230;5.194;2022-12-20T10:35:27;100883.69;;;5.57;96.88
53647;BME280;39550;52.230;5.194;2022-12-20T10:40:31;100864.09;;;5.57;96.77
53647;BME280;39550;52.230;5.194;2022-12-20T10:42:58;100858.00;;;5.54;96.35
53647;BME280;39550;52.230;5.194;2022-12-20T10:45:42;100837.41;;;5.48;96.85
53647;BME280;39550;52.230;5.194;2022-12-20T10:51:03;100835.66;;;5.46;96.96
53647;BME280;39550;52.230;5.194;2022-12-20T10:56:26;100853.09;;;5.60;96.35
53647;BME280;39550;52.230;5.194;2022-12-20T11:01:20;100848.78;;;5.59;96.68
53647;BME280;39550;52.230;5.194;2022-12-20T11:03:55;100817.53;;;5.37;96.95
53647;BME280;39550;52.230;5.194;2022-12-20T11:06:27;100796.88;;;5.31;96.89
53647;BME280;39550;52.230;5.194;2022-12-20T11:12:13;100854.91;;;5.64;96.88
53647;BME280;39550;52.230;5.194;2022-12-20T11:14:41;100839.34;;;5.56;96.64
53647;BME280;39550;52.230;5.194;2022-12-20T11:19:45;100843.81;;;5.63;96.57
53647;BME280;39550;52.230;5.194;2022-12-20T11:31:14;100852.44;;;5.67;97.50
53647;BME280;39550;52.230;5.194;2022-12-20T11:34:22;100849.88;;;5.67;97.42
53647;BME280;39550;52.230;5.194;2022-12-20T11:39:49;100846.50;;;5.68;96.55
53647;BME280;39550;52.230;5.194;2022-12-20T11:45:03;100834.53;;;5.67;96.86
53647;BME280;39550;52.230;5.194;2022-12-20T11:50:58;100832.91;;;5.69;96.32
53647;BME280;39550;52.230;5.194;2022-12-20T11:53:41;100842.25;;;5.69;96.61
53647;BME280;39550;52.230;5.194;2022-12-20T11:56:16;100848.22;;;5.69;97.17
53647;BME280;39550;52.230;5.194;2022-12-20T12:01:34;100843.13;;;5.69;97.25
53647;BME280;39550;52.230;5.194;2022-12-20T12:06:44;100837.16;;;5.70;97.05
53647;BME280;39550;52.230;5.194;2022-12-20T12:12:01;100843.97;;;5.70;96.90
53647;BME280;39550;52.230;5.194;2022-12-20T12:14:36;100843.16;;;5.71;96.66
53647;BME280;39550;52.230;5.194;2022-12-20T12:17:14;100839.81;;;5.73;96.56
53647;BME280;39550;52.230;5.194;2022-12-20T12:19:45;100829.59;;;5.73;97.05
53647;BME280;39550;52.230;5.194;2022-12-20T12:22:23;100827.91;;;5.74;97.52
53647;BME280;39550;52.230;5.194;2022-12-20T12:24:56;100830.38;;;5.71;96.55
53647;BME280;39550;52.230;5.194;2022-12-20T12:27:24;100824.56;;;5.76;97.23
53647;BME280;39550;52.230;5.194;2022-12-20T12:29:52;100822.91;;;5.78;96.83
53647;BME280;39550;52.230;5.194;2022-12-20T12:32:38;100830.56;;;5.78;96.96
53647;BME280;39550;52.230;5.194;2022-12-20T12:38:08;100823.78;;;5.79;97.41
53647;BME280;39550;52.230;5.194;2022-12-20T12:43:55;100828.91;;;5.79;97.73
53647;BME280;39550;52.230;5.194;2022-12-20T12:46:28;100822.91;;;5.78;97.11
53647;BME280;39550;52.230;5.194;2022-12-20T12:49:04;100830.56;;;5.78;96.63
53647;BME280;39550;52.230;5.194;2022-12-20T12:51:38;100824.56;;;5.76;97.35
53647;BME280;39550;52.230;5.194;2022-12-20T12:56:38;100822.91;;;5.78;96.60
53647;BME280;39550;52.230;5.194;2022-12-20T13:11:47;100838.44;;;5.85;96.14
53647;BME280;39550;52.230;5.194;2022-12-20T13:17:37;100831.56;;;5.84;96.14
53647;BME280;39550;52.230;5.194;2022-12-20T13:19:48;100821.34;;;5.84;95.88
53647;BME280;39550;52.230;5.194;2022-12-20T13:22:21;100835.06;;;5.86;96.56
53647;BME280;39550;52.230;5.194;2022-12-20T13:27:31;100833.31;;;5.85;95.78
53647;BME280;39550;52.230;5.194;2022-12-20T13:40:37;100833.53;;;5.94;95.72
53647;BME280;39550;52.230;5.194;2022-12-20T13:45:50;100834.38;;;5.93;95.86
53647;BME280;39550;52.230;5.194;2022-12-20T13:48:25;100836.06;;;5.92;95.89
53647;BME280;39550;52.230;5.194;2022-12-20T13:50:54;100827.56;;;5.93;95.69
53647;BME280;39550;52.230;5.194;2022-12-20T13:53:25;100826.72;;;5.93;95.19
53647;BME280;39550;52.230;5.194;2022-12-20T13:55:54;100826.72;;;5.93;95.27
53647;BME280;39550;52.230;5.194;2022-12-20T13:58:27;100821.63;;;5.94;94.92
53647;BME280;39550;52.230;5.194;2022-12-20T14:01:04;100816.50;;;5.94;95.47
53647;BME280;39550;52.230;5.194;2022-12-20T14:03:30;100817.38;;;5.95;95.87
53647;BME280;39550;52.230;5.194;2022-12-20T14:08:28;100825.03;;;5.95;95.74
53647;BME280;39550;52.230;5.194;2022-12-20T14:10:54;100819.13;;;5.96;95.20
53647;BME280;39550;52.230;5.194;2022-12-20T14:13:25;100820.03;;;5.98;95.70
53647;BME280;39550;52.230;5.194;2022-12-20T14:15:52;100817.63;;;6.03;96.52
53647;BME280;39550;52.230;5.194;2022-12-20T14:18:22;100812.44;;;6.00;96.02
53647;BME280;39550;52.230;5.194;2022-12-20T14:20:58;100826.06;;;6.00;95.48
53647;BME280;39550;52.230;5.194;2022-12-20T14:23:50;100834.56;;;5.99;95.77
53647;BME280;39550;52.230;5.194;2022-12-20T14:26:17;100837.13;;;5.99;94.75
53647;BME280;39550;52.230;5.194;2022-12-20T14:28:47;100827.63;;;5.96;95.41
53647;BME280;39550;52.230;5.194;2022-12-20T14:36:44;100834.53;;;5.97;95.49
53647;BME280;39550;52.230;5.194;2022-12-20T14:42:02;100833.63;;;5.97;95.52
53647;BME280;39550;52.230;5.194;2022-12-20T14:44:36;100833.63;;;5.97;95.10
53647;BME280;39550;52.230;5.194;2022-12-20T14:47:25;100831.91;;;5.96;95.45
53647;BME280;39550;52.230;5.194;2022-12-20T14:49:56;100831.09;;;5.97;95.76
53647;BME280;39550;52.230;5.194;2022-12-20T14:52:33;100821.72;;;5.97;95.90
53647;BME280;39550;52.230;5.194;2022-12-20T14:55:04;100808.94;;;5.97;95.12
53647;BME280;39550;52.230;5.194;2022-12-20T15:02:39;100799.56;;;5.98;95.02
53647;BME280;39550;52.230;5.194;2022-12-20T15:05:36;100800.47;;;5.99;95.44
53647;BME280;39550;52.230;5.194;2022-12-20T15:10:40;100809.81;;;5.98;94.83
53647;BME280;39550;52.230;5.194;2022-12-20T15:13:11;100808.97;;;5.99;95.73